sensor_id;sensor_type;location;lat;lon;timestamp;P1;durP1;ratioP1;P2;durP2;ratioP2
37781;SDS011;23621;50.878;4.584;2023-04-03T00:02:02;14.20;;;9.48;;
37781;SDS011;23621;50.878;4.584;2023-04-03T00:04:29;10.95;;;9.70;;
37781;SDS011;23621;50.878;4.584;2023-04-03T00:06:57;11.82;;;10.18;;
37781;SDS011;23621;50.878;4.584;2023-04-03T00:09:24;12.75;;;10.95;;
37781;SDS011;23621;50.878;4.584;2023-04-03T00:11:51;13.55;;;11.13;;
37781;SDS011;23621;50.878;4.584;2023-04-03T00:14:18;12.75;;;10.68;;
37781;SDS011;23621;50.878;4.584;2023-04-03T00:16:45;15.98;;;11.00;;
37781;SDS011;23621;50.878;4.584;2023-04-03T00:19:12;11.95;;;10.63;;
37781;SDS011;23621;50.878;4.584;2023-04-03T00:21:39;13.50;;;10.73;;
37781;SDS011;23621;50.878;4.584;2023-04-03T00:24:07;11.77;;;9.88;;
37781;SDS011;23621;50.878;4.584;2023-04-03T00:26:34;14.98;;;10.85;;
37781;SDS011;23621;50.878;4.584;2023-04-03T00:29:01;11.00;;;9.25;;
37781;SDS011;23621;50.878;4.584;2023-04-03T00:31:28;9.82;;;8.82;;
37781;SDS011;23621;50.878;4.584;2023-04-03T00:33:55;13.10;;;9.23;;
37781;SDS011;23621;50.878;4.584;2023-04-03T00:36:22;10.23;;;9.15;;
37781;SDS011;23621;50.878;4.584;2023-04-03T00:38:49;10.88;;;9.15;;
37781;SDS011;23621;50.878;4.584;2023-04-03T00:41:18;11.23;;;9.43;;
37781;SDS011;23621;50.878;4.584;2023-04-03T00:43:46;9.60;;;8.60;;
37781;SDS011;23621;50.878;4.584;2023-04-03T00:46:12;10.77;;;9.48;;
37781;SDS011;23621;50.878;4.584;2023-04-03T00:48:41;10.70;;;8.60;;
37781;SDS011;23621;50.878;4.584;2023-04-03T00:51:12;10.05;;;9.00;;
37781;SDS011;23621;50.878;4.584;2023-04-03T00:53:46;9.63;;;8.50;;
37781;SDS011;23621;50.878;4.584;2023-04-03T00:56:17;10.95;;;9.07;;
37781;SDS011;23621;50.878;4.584;2023-04-03T00:58:52;9.95;;;8.75;;
37781;SDS011;23621;50.878;4.584;2023-04-03T01:01:26;9.82;;;8.82;;
37781;SDS011;23621;50.878;4.584;2023-04-03T01:03:55;9.68;;;7.93;;
37781;SDS011;23621;50.878;4.584;2023-04-03T01:06:24;9.90;;;8.15;;
37781;SDS011;23621;50.878;4.584;2023-04-03T01:09:00;9.68;;;8.18;;
37781;SDS011;23621;50.878;4.584;2023-04-03T01:11:27;9.23;;;8.20;;
37781;SDS011;23621;50.878;4.584;2023-04-03T01:13:54;9.50;;;8.40;;
37781;SDS011;23621;50.878;4.584;2023-04-03T01:16:21;10.93;;;8.90;;
37781;SDS011;23621;50.878;4.584;2023-04-03T01:18:48;8.85;;;7.95;;
37781;SDS011;23621;50.878;4.584;2023-04-03T01:21:37;10.25;;;7.97;;
37781;SDS011;23621;50.878;4.584;2023-04-03T01:27:00;9.02;;;7.47;;
37781;SDS011;23621;50.878;4.584;2023-04-03T01:29:30;8.70;;;7.80;;
37781;SDS011;23621;50.878;4.584;2023-04-03T01:31:57;8.05;;;7.13;;
37781;SDS011;23621;50.878;4.584;2023-04-03T01:34:27;7.90;;;7.10;;
37781;SDS011;23621;50.878;4.584;2023-04-03T01:36:55;11.52;;;8.10;;
37781;SDS011;23621;50.878;4.584;2023-04-03T01:39:22;8.88;;;7.50;;
37781;SDS011;23621;50.878;4.584;2023-04-03T01:41:49;9.45;;;8.00;;
37781;SDS011;23621;50.878;4.584;2023-04-03T01:44:16;8.38;;;7.47;;
37781;SDS011;23621;50.878;4.584;2023-04-03T01:46:43;7.97;;;7.20;;
37781;SDS011;23621;50.878;4.584;2023-04-03T01:49:10;8.25;;;7.43;;
37781;SDS011;23621;50.878;4.584;2023-04-03T01:51:37;8.50;;;7.05;;
37781;SDS011;23621;50.878;4.584;2023-04-03T01:54:04;7.78;;;7.00;;
37781;SDS011;23621;50.878;4.584;2023-04-03T01:56:31;8.23;;;7.43;;
37781;SDS011;23621;50.878;4.584;2023-04-03T01:58:58;8.05;;;7.35;;
37781;SDS011;23621;50.878;4.584;2023-04-03T02:01:25;8.07;;;7.25;;
37781;SDS011;23621;50.878;4.584;2023-04-03T02:03:52;8.20;;;7.40;;
37781;SDS011;23621;50.878;4.584;2023-04-03T02:06:22;9.25;;;7.38;;
37781;SDS011;23621;50.878;4.584;2023-04-03T02:08:49;7.95;;;7.03;;
37781;SDS011;23621;50.878;4.584;2023-04-03T02:11:16;8.57;;;7.70;;
37781;SDS011;23621;50.878;4.584;2023-04-03T02:13:43;8.35;;;7.22;;
37781;SDS011;23621;50.878;4.584;2023-04-03T02:16:10;7.50;;;6.68;;
37781;SDS011;23621;50.878;4.584;2023-04-03T02:18:38;9.85;;;6.95;;
37781;SDS011;23621;50.878;4.584;2023-04-03T02:21:06;9.18;;;6.60;;
37781;SDS011;23621;50.878;4.584;2023-04-03T02:23:33;9.20;;;7.03;;
37781;SDS011;23621;50.878;4.584;2023-04-03T02:26:06;7.80;;;6.68;;
37781;SDS011;23621;50.878;4.584;2023-04-03T02:28:34;7.47;;;6.78;;
37781;SDS011;23621;50.878;4.584;2023-04-03T02:31:02;7.90;;;7.10;;
37781;SDS011;23621;50.878;4.584;2023-04-03T02:33:30;10.10;;;6.63;;
37781;SDS011;23621;50.878;4.584;2023-04-03T02:35:57;7.28;;;6.57;;
37781;SDS011;23621;50.878;4.584;2023-04-03T02:38:25;7.20;;;6.50;;
37781;SDS011;23621;50.878;4.584;2023-04-03T02:40:52;7.72;;;6.65;;
37781;SDS011;23621;50.878;4.584;2023-04-03T02:43:19;6.95;;;6.25;;
37781;SDS011;23621;50.878;4.584;2023-04-03T02:45:46;8.88;;;6.95;;
37781;SDS011;23621;50.878;4.584;2023-04-03T02:48:18;7.00;;;6.07;;
37781;SDS011;23621;50.878;4.584;2023-04-03T02:50:45;8.55;;;6.88;;
37781;SDS011;23621;50.878;4.584;2023-04-03T02:53:12;7.88;;;6.50;;
37781;SDS011;23621;50.878;4.584;2023-04-03T02:55:39;8.65;;;6.40;;
37781;SDS011;23621;50.878;4.584;2023-04-03T02:58:06;7.45;;;6.75;;
37781;SDS011;23621;50.878;4.584;2023-04-03T03:00:35;7.97;;;6.93;;
37781;SDS011;23621;50.878;4.584;2023-04-03T03:03:02;8.05;;;7.25;;
37781;SDS011;23621;50.878;4.584;2023-04-03T03:05:30;9.45;;;6.88;;
37781;SDS011;23621;50.878;4.584;2023-04-03T03:07:57;7.45;;;6.75;;
37781;SDS011;23621;50.878;4.584;2023-04-03T03:10:24;6.72;;;6.10;;
37781;SDS011;23621;50.878;4.584;2023-04-03T03:12:51;7.55;;;6.68;;
37781;SDS011;23621;50.878;4.584;2023-04-03T03:15:18;7.30;;;6.57;;
37781;SDS011;23621;50.878;4.584;2023-04-03T03:17:45;7.75;;;7.03;;
37781;SDS011;23621;50.878;4.584;2023-04-03T03:20:12;8.75;;;6.60;;
37781;SDS011;23621;50.878;4.584;2023-04-03T03:22:42;6.90;;;6.20;;
37781;SDS011;23621;50.878;4.584;2023-04-03T03:25:09;7.70;;;6.47;;
37781;SDS011;23621;50.878;4.584;2023-04-03T03:27:36;8.32;;;6.35;;
37781;SDS011;23621;50.878;4.584;2023-04-03T03:30:04;6.85;;;6.15;;
37781;SDS011;23621;50.878;4.584;2023-04-03T03:32:32;6.88;;;6.18;;
37781;SDS011;23621;50.878;4.584;2023-04-03T03:34:59;6.40;;;5.80;;
37781;SDS011;23621;50.878;4.584;2023-04-03T03:37:26;8.07;;;6.55;;
37781;SDS011;23621;50.878;4.584;2023-04-03T03:39:53;6.72;;;6.00;;
37781;SDS011;23621;50.878;4.584;2023-04-03T03:42:21;7.55;;;6.53;;
37781;SDS011;23621;50.878;4.584;2023-04-03T03:44:48;7.78;;;6.53;;
37781;SDS011;23621;50.878;4.584;2023-04-03T03:47:15;7.70;;;6.30;;
37781;SDS011;23621;50.878;4.584;2023-04-03T03:49:45;6.47;;;5.88;;
37781;SDS011;23621;50.878;4.584;2023-04-03T03:52:12;8.02;;;6.30;;
37781;SDS011;23621;50.878;4.584;2023-04-03T03:54:40;7.32;;;6.28;;
37781;SDS011;23621;50.878;4.584;2023-04-03T03:57:09;6.82;;;5.93;;
37781;SDS011;23621;50.878;4.584;2023-04-03T03:59:39;7.25;;;6.25;;
37781;SDS011;23621;50.878;4.584;2023-04-03T04:02:07;7.05;;;6.20;;
37781;SDS011;23621;50.878;4.584;2023-04-03T04:04:40;7.28;;;6.40;;
37781;SDS011;23621;50.878;4.584;2023-04-03T04:07:07;9.02;;;6.45;;
37781;SDS011;23621;50.878;4.584;2023-04-03T04:09:34;7.60;;;6.50;;
37781;SDS011;23621;50.878;4.584;2023-04-03T04:12:02;7.65;;;6.90;;
37781;SDS011;23621;50.878;4.584;2023-04-03T04:14:29;8.77;;;6.50;;
37781;SDS011;23621;50.878;4.584;2023-04-03T04:16:56;7.07;;;6.35;;
37781;SDS011;23621;50.878;4.584;2023-04-03T04:19:23;7.25;;;6.50;;
37781;SDS011;23621;50.878;4.584;2023-04-03T04:21:50;7.07;;;6.47;;
37781;SDS011;23621;50.878;4.584;2023-04-03T04:24:17;7.15;;;6.45;;
37781;SDS011;23621;50.878;4.584;2023-04-03T04:26:44;7.75;;;6.95;;
37781;SDS011;23621;50.878;4.584;2023-04-03T04:29:11;6.95;;;6.28;;
37781;SDS011;23621;50.878;4.584;2023-04-03T04:31:39;7.25;;;6.55;;
37781;SDS011;23621;50.878;4.584;2023-04-03T04:34:09;7.70;;;6.95;;
37781;SDS011;23621;50.878;4.584;2023-04-03T04:36:36;9.05;;;7.10;;
37781;SDS011;23621;50.878;4.584;2023-04-03T04:42:20;7.70;;;6.93;;
37781;SDS011;23621;50.878;4.584;2023-04-03T04:44:47;6.93;;;6.20;;
37781;SDS011;23621;50.878;4.584;2023-04-03T04:47:14;8.52;;;6.75;;
37781;SDS011;23621;50.878;4.584;2023-04-03T04:49:51;7.05;;;6.35;;
37781;SDS011;23621;50.878;4.584;2023-04-03T04:52:18;7.50;;;6.80;;
37781;SDS011;23621;50.878;4.584;2023-04-03T04:54:45;7.97;;;6.63;;
37781;SDS011;23621;50.878;4.584;2023-04-03T04:57:12;8.07;;;7.18;;
37781;SDS011;23621;50.878;4.584;2023-04-03T04:59:39;7.68;;;6.88;;
37781;SDS011;23621;50.878;4.584;2023-04-03T05:02:06;10.15;;;7.43;;
37781;SDS011;23621;50.878;4.584;2023-04-03T05:04:34;9.35;;;7.15;;
37781;SDS011;23621;50.878;4.584;2023-04-03T05:07:01;8.52;;;6.85;;
37781;SDS011;23621;50.878;4.584;2023-04-03T05:09:28;8.02;;;7.22;;
37781;SDS011;23621;50.878;4.584;2023-04-03T05:11:55;7.78;;;7.07;;
37781;SDS011;23621;50.878;4.584;2023-04-03T05:14:23;7.15;;;6.40;;
37781;SDS011;23621;50.878;4.584;2023-04-03T05:16:50;7.43;;;6.72;;
37781;SDS011;23621;50.878;4.584;2023-04-03T05:19:20;8.15;;;6.85;;
37781;SDS011;23621;50.878;4.584;2023-04-03T05:21:47;8.50;;;6.88;;
37781;SDS011;23621;50.878;4.584;2023-04-03T05:24:15;8.68;;;7.68;;
37781;SDS011;23621;50.878;4.584;2023-04-03T05:26:43;9.05;;;7.10;;
37781;SDS011;23621;50.878;4.584;2023-04-03T05:29:10;7.82;;;7.13;;
37781;SDS011;23621;50.878;4.584;2023-04-03T05:31:37;8.30;;;7.50;;
37781;SDS011;23621;50.878;4.584;2023-04-03T05:34:05;9.20;;;7.70;;
37781;SDS011;23621;50.878;4.584;2023-04-03T05:36:32;8.18;;;7.38;;
37781;SDS011;23621;50.878;4.584;2023-04-03T05:38:59;7.63;;;6.78;;
37781;SDS011;23621;50.878;4.584;2023-04-03T05:41:27;8.63;;;7.25;;
37781;SDS011;23621;50.878;4.584;2023-04-03T05:43:54;9.50;;;7.47;;
37781;SDS011;23621;50.878;4.584;2023-04-03T05:46:21;8.05;;;7.25;;
37781;SDS011;23621;50.878;4.584;2023-04-03T05:48:48;8.77;;;7.13;;
37781;SDS011;23621;50.878;4.584;2023-04-03T05:51:20;8.93;;;7.95;;
37781;SDS011;23621;50.878;4.584;2023-04-03T05:53:50;8.93;;;8.02;;
37781;SDS011;23621;50.878;4.584;2023-04-03T05:56:22;9.40;;;8.43;;
37781;SDS011;23621;50.878;4.584;2023-04-03T05:58:55;9.10;;;7.95;;
37781;SDS011;23621;50.878;4.584;2023-04-03T06:01:22;9.38;;;7.97;;
37781;SDS011;23621;50.878;4.584;2023-04-03T06:03:49;9.70;;;7.70;;
37781;SDS011;23621;50.878;4.584;2023-04-03T06:06:17;11.23;;;8.57;;
37781;SDS011;23621;50.878;4.584;2023-04-03T06:08:44;10.52;;;8.32;;
37781;SDS011;23621;50.878;4.584;2023-04-03T06:11:12;12.05;;;8.45;;
37781;SDS011;23621;50.878;4.584;2023-04-03T06:13:39;8.57;;;7.68;;
37781;SDS011;23621;50.878;4.584;2023-04-03T06:16:06;9.57;;;8.57;;
37781;SDS011;23621;50.878;4.584;2023-04-03T06:18:37;8.98;;;7.85;;
37781;SDS011;23621;50.878;4.584;2023-04-03T06:21:05;9.07;;;8.02;;
37781;SDS011;23621;50.878;4.584;2023-04-03T06:23:34;13.02;;;9.00;;
37781;SDS011;23621;50.878;4.584;2023-04-03T06:26:05;11.23;;;8.55;;
37781;SDS011;23621;50.878;4.584;2023-04-03T06:28:32;9.90;;;8.90;;
37781;SDS011;23621;50.878;4.584;2023-04-03T06:30:59;11.32;;;9.18;;
37781;SDS011;23621;50.878;4.584;2023-04-03T06:33:26;11.70;;;9.52;;
37781;SDS011;23621;50.878;4.584;2023-04-03T06:35:59;13.10;;;10.15;;
37781;SDS011;23621;50.878;4.584;2023-04-03T06:38:30;12.10;;;10.63;;
37781;SDS011;23621;50.878;4.584;2023-04-03T06:40:58;13.40;;;10.75;;
37781;SDS011;23621;50.878;4.584;2023-04-03T06:43:28;13.50;;;10.82;;
37781;SDS011;23621;50.878;4.584;2023-04-03T06:46:00;12.70;;;10.45;;
37781;SDS011;23621;50.878;4.584;2023-04-03T06:48:27;12.50;;;9.90;;
37781;SDS011;23621;50.878;4.584;2023-04-03T06:50:54;13.50;;;10.98;;
37781;SDS011;23621;50.878;4.584;2023-04-03T06:53:22;14.77;;;10.68;;
37781;SDS011;23621;50.878;4.584;2023-04-03T06:55:49;12.52;;;10.35;;
37781;SDS011;23621;50.878;4.584;2023-04-03T06:58:16;13.85;;;10.82;;
37781;SDS011;23621;50.878;4.584;2023-04-03T07:00:47;11.88;;;10.63;;
37781;SDS011;23621;50.878;4.584;2023-04-03T07:03:14;14.35;;;10.15;;
37781;SDS011;23621;50.878;4.584;2023-04-03T07:05:42;13.60;;;10.90;;
37781;SDS011;23621;50.878;4.584;2023-04-03T07:08:11;11.57;;;10.15;;
37781;SDS011;23621;50.878;4.584;2023-04-03T07:10:56;12.23;;;10.93;;
37781;SDS011;23621;50.878;4.584;2023-04-03T07:13:23;14.30;;;10.88;;
37781;SDS011;23621;50.878;4.584;2023-04-03T07:15:51;11.95;;;10.05;;
37781;SDS011;23621;50.878;4.584;2023-04-03T07:18:18;11.88;;;10.68;;
37781;SDS011;23621;50.878;4.584;2023-04-03T07:20:45;10.70;;;9.65;;
37781;SDS011;23621;50.878;4.584;2023-04-03T07:23:12;12.52;;;10.32;;
37781;SDS011;23621;50.878;4.584;2023-04-03T07:25:43;12.10;;;9.88;;
37781;SDS011;23621;50.878;4.584;2023-04-03T07:28:11;10.30;;;9.25;;
37781;SDS011;23621;50.878;4.584;2023-04-03T07:30:43;11.68;;;9.68;;
37781;SDS011;23621;50.878;4.584;2023-04-03T07:33:10;11.43;;;10.05;;
37781;SDS011;23621;50.878;4.584;2023-04-03T07:35:38;11.27;;;9.13;;
37781;SDS011;23621;50.878;4.584;2023-04-03T07:38:06;11.32;;;9.68;;
37781;SDS011;23621;50.878;4.584;2023-04-03T07:40:34;11.45;;;9.57;;
37781;SDS011;23621;50.878;4.584;2023-04-03T07:43:01;11.02;;;9.68;;
37781;SDS011;23621;50.878;4.584;2023-04-03T07:45:28;11.95;;;9.35;;
37781;SDS011;23621;50.878;4.584;2023-04-03T07:47:55;9.82;;;8.93;;
37781;SDS011;23621;50.878;4.584;2023-04-03T07:50:23;10.23;;;9.23;;
37781;SDS011;23621;50.878;4.584;2023-04-03T07:52:50;9.52;;;8.48;;
37781;SDS011;23621;50.878;4.584;2023-04-03T07:55:18;9.07;;;8.18;;
37781;SDS011;23621;50.878;4.584;2023-04-03T07:57:45;11.48;;;8.35;;
37781;SDS011;23621;50.878;4.584;2023-04-03T08:00:12;10.60;;;8.73;;
37781;SDS011;23621;50.878;4.584;2023-04-03T08:02:40;9.77;;;8.75;;
37781;SDS011;23621;50.878;4.584;2023-04-03T08:05:07;11.88;;;8.68;;
37781;SDS011;23621;50.878;4.584;2023-04-03T08:07:36;8.95;;;8.05;;
37781;SDS011;23621;50.878;4.584;2023-04-03T08:10:04;9.63;;;8.70;;
37781;SDS011;23621;50.878;4.584;2023-04-03T08:12:31;8.85;;;7.53;;
37781;SDS011;23621;50.878;4.584;2023-04-03T08:14:59;10.50;;;8.38;;
37781;SDS011;23621;50.878;4.584;2023-04-03T08:17:27;8.88;;;7.32;;
37781;SDS011;23621;50.878;4.584;2023-04-03T08:19:54;12.52;;;8.15;;
37781;SDS011;23621;50.878;4.584;2023-04-03T08:22:21;9.40;;;8.20;;
37781;SDS011;23621;50.878;4.584;2023-04-03T08:24:48;8.18;;;7.28;;
37781;SDS011;23621;50.878;4.584;2023-04-03T08:27:24;10.73;;;7.50;;
37781;SDS011;23621;50.878;4.584;2023-04-03T08:29:54;8.68;;;7.47;;
37781;SDS011;23621;50.878;4.584;2023-04-03T08:32:21;10.80;;;7.80;;
37781;SDS011;23621;50.878;4.584;2023-04-03T08:34:49;12.07;;;7.10;;
37781;SDS011;23621;50.878;4.584;2023-04-03T08:37:16;9.65;;;7.32;;
37781;SDS011;23621;50.878;4.584;2023-04-03T08:39:44;7.43;;;6.63;;
37781;SDS011;23621;50.878;4.584;2023-04-03T08:42:15;6.72;;;6.07;;
37781;SDS011;23621;50.878;4.584;2023-04-03T08:47:37;7.10;;;5.68;;
37781;SDS011;23621;50.878;4.584;2023-04-03T08:50:14;6.03;;;5.53;;
37781;SDS011;23621;50.878;4.584;2023-04-03T08:52:45;5.95;;;5.35;;
37781;SDS011;23621;50.878;4.584;2023-04-03T08:58:26;7.25;;;5.00;;
37781;SDS011;23621;50.878;4.584;2023-04-03T09:01:01;6.95;;;4.85;;
37781;SDS011;23621;50.878;4.584;2023-04-03T09:03:32;5.32;;;4.50;;
37781;SDS011;23621;50.878;4.584;2023-04-03T09:11:24;6.07;;;4.78;;
37781;SDS011;23621;50.878;4.584;2023-04-03T09:16:54;5.63;;;3.88;;
37781;SDS011;23621;50.878;4.584;2023-04-03T09:21:57;5.70;;;4.13;;
37781;SDS011;23621;50.878;4.584;2023-04-03T09:24:34;5.03;;;3.38;;
37781;SDS011;23621;50.878;4.584;2023-04-03T09:27:03;4.40;;;3.70;;
37781;SDS011;23621;50.878;4.584;2023-04-03T09:29:32;4.00;;;3.60;;
37781;SDS011;23621;50.878;4.584;2023-04-03T09:32:15;4.63;;;3.65;;
37781;SDS011;23621;50.878;4.584;2023-04-03T09:34:47;5.05;;;3.55;;
37781;SDS011;23621;50.878;4.584;2023-04-03T09:45:47;3.42;;;3.05;;
37781;SDS011;23621;50.878;4.584;2023-04-03T09:48:25;4.68;;;3.55;;
37781;SDS011;23621;50.878;4.584;2023-04-03T09:50:56;4.40;;;3.40;;
37781;SDS011;23621;50.878;4.584;2023-04-03T09:53:30;5.85;;;3.33;;
37781;SDS011;23621;50.878;4.584;2023-04-03T09:56:02;3.67;;;2.92;;
37781;SDS011;23621;50.878;4.584;2023-04-03T09:58:43;5.97;;;3.10;;
37781;SDS011;23621;50.878;4.584;2023-04-03T10:01:35;4.95;;;3.47;;
37781;SDS011;23621;50.878;4.584;2023-04-03T10:06:43;5.20;;;3.15;;
37781;SDS011;23621;50.878;4.584;2023-04-03T10:12:04;3.17;;;2.88;;
37781;SDS011;23621;50.878;4.584;2023-04-03T10:20:09;4.25;;;3.17;;
37781;SDS011;23621;50.878;4.584;2023-04-03T10:27:56;4.18;;;3.38;;
37781;SDS011;23621;50.878;4.584;2023-04-03T10:39:43;4.25;;;2.80;;
37781;SDS011;23621;50.878;4.584;2023-04-03T10:42:34;4.00;;;2.40;;
37781;SDS011;23621;50.878;4.584;2023-04-03T10:50:48;4.15;;;2.42;;
37781;SDS011;23621;50.878;4.584;2023-04-03T10:53:48;3.05;;;2.17;;
37781;SDS011;23621;50.878;4.584;2023-04-03T10:56:37;4.10;;;2.17;;
37781;SDS011;23621;50.878;4.584;2023-04-03T10:59:47;5.78;;;2.78;;
37781;SDS011;23621;50.878;4.584;2023-04-03T11:02:25;4.35;;;2.33;;
37781;SDS011;23621;50.878;4.584;2023-04-03T11:05:07;2.67;;;2.05;;
37781;SDS011;23621;50.878;4.584;2023-04-03T11:07:47;3.15;;;2.17;;
37781;SDS011;23621;50.878;4.584;2023-04-03T11:10:28;3.70;;;2.25;;
37781;SDS011;23621;50.878;4.584;2023-04-03T11:13:19;4.53;;;2.45;;
37781;SDS011;23621;50.878;4.584;2023-04-03T11:15:53;3.42;;;2.13;;
37781;SDS011;23621;50.878;4.584;2023-04-03T11:18:22;2.90;;;2.20;;
37781;SDS011;23621;50.878;4.584;2023-04-03T11:21:40;3.20;;;2.20;;
37781;SDS011;23621;50.878;4.584;2023-04-03T11:24:25;2.97;;;2.20;;
37781;SDS011;23621;50.878;4.584;2023-04-03T11:26:56;3.28;;;2.30;;
37781;SDS011;23621;50.878;4.584;2023-04-03T11:29:30;3.38;;;2.55;;
37781;SDS011;23621;50.878;4.584;2023-04-03T11:34:49;3.95;;;2.20;;
37781;SDS011;23621;50.878;4.584;2023-04-03T11:37:23;3.25;;;2.30;;
37781;SDS011;23621;50.878;4.584;2023-04-03T11:40:01;2.90;;;2.20;;
37781;SDS011;23621;50.878;4.584;2023-04-03T11:45:36;2.05;;;1.85;;
37781;SDS011;23621;50.878;4.584;2023-04-03T11:50:58;2.95;;;2.20;;
37781;SDS011;23621;50.878;4.584;2023-04-03T11:53:36;2.28;;;1.85;;
37781;SDS011;23621;50.878;4.584;2023-04-03T12:04:20;2.65;;;1.80;;
37781;SDS011;23621;50.878;4.584;2023-04-03T12:06:52;4.10;;;1.73;;
37781;SDS011;23621;50.878;4.584;2023-04-03T12:09:34;2.50;;;1.85;;
37781;SDS011;23621;50.878;4.584;2023-04-03T12:12:30;2.10;;;1.90;;
37781;SDS011;23621;50.878;4.584;2023-04-03T12:17:52;3.38;;;1.80;;
37781;SDS011;23621;50.878;4.584;2023-04-03T12:23:28;2.53;;;1.80;;
37781;SDS011;23621;50.878;4.584;2023-04-03T12:26:04;2.28;;;1.42;;
37781;SDS011;23621;50.878;4.584;2023-04-03T12:28:38;1.90;;;1.80;;
37781;SDS011;23621;50.878;4.584;2023-04-03T12:31:06;1.90;;;1.80;;
37781;SDS011;23621;50.878;4.584;2023-04-03T12:33:38;2.10;;;1.90;;
37781;SDS011;23621;50.878;4.584;2023-04-03T12:36:36;1.65;;;1.55;;
37781;SDS011;23621;50.878;4.584;2023-04-03T12:39:51;3.28;;;1.88;;
37781;SDS011;23621;50.878;4.584;2023-04-03T12:42:34;2.03;;;1.83;;
37781;SDS011;23621;50.878;4.584;2023-04-03T12:45:24;1.98;;;1.60;;
37781;SDS011;23621;50.878;4.584;2023-04-03T12:47:53;3.45;;;1.90;;
37781;SDS011;23621;50.878;4.584;2023-04-03T12:50:22;3.03;;;1.70;;
37781;SDS011;23621;50.878;4.584;2023-04-03T12:53:00;4.18;;;1.80;;
37781;SDS011;23621;50.878;4.584;2023-04-03T12:55:28;3.53;;;1.92;;
37781;SDS011;23621;50.878;4.584;2023-04-03T12:57:55;2.63;;;1.83;;
37781;SDS011;23621;50.878;4.584;2023-04-03T13:00:32;2.20;;;1.77;;
37781;SDS011;23621;50.878;4.584;2023-04-03T13:03:02;1.83;;;1.67;;
37781;SDS011;23621;50.878;4.584;2023-04-03T13:05:31;3.47;;;2.17;;
37781;SDS011;23621;50.878;4.584;2023-04-03T13:08:07;2.20;;;1.85;;
37781;SDS011;23621;50.878;4.584;2023-04-03T13:10:51;1.70;;;1.60;;
37781;SDS011;23621;50.878;4.584;2023-04-03T13:13:21;4.63;;;2.17;;
37781;SDS011;23621;50.878;4.584;2023-04-03T13:15:49;1.90;;;1.70;;
37781;SDS011;23621;50.878;4.584;2023-04-03T13:20:55;2.13;;;1.73;;
37781;SDS011;23621;50.878;4.584;2023-04-03T13:23:29;2.05;;;1.63;;
37781;SDS011;23621;50.878;4.584;2023-04-03T13:25:58;2.67;;;1.90;;
37781;SDS011;23621;50.878;4.584;2023-04-03T13:28:30;3.25;;;2.53;;
37781;SDS011;23621;50.878;4.584;2023-04-03T13:33:52;3.42;;;2.00;;
37781;SDS011;23621;50.878;4.584;2023-04-03T13:36:41;2.67;;;1.92;;
37781;SDS011;23621;50.878;4.584;2023-04-03T13:41:48;3.45;;;1.75;;
37781;SDS011;23621;50.878;4.584;2023-04-03T13:46:50;1.85;;;1.73;;
37781;SDS011;23621;50.878;4.584;2023-04-03T13:49:31;3.95;;;1.80;;
37781;SDS011;23621;50.878;4.584;2023-04-03T13:52:03;2.92;;;1.92;;
37781;SDS011;23621;50.878;4.584;2023-04-03T13:54:53;4.70;;;2.22;;
37781;SDS011;23621;50.878;4.584;2023-04-03T13:57:23;1.80;;;1.70;;
37781;SDS011;23621;50.878;4.584;2023-04-03T13:59:51;4.22;;;2.00;;
37781;SDS011;23621;50.878;4.584;2023-04-03T14:02:23;2.75;;;1.92;;
37781;SDS011;23621;50.878;4.584;2023-04-03T14:04:58;2.78;;;1.83;;
37781;SDS011;23621;50.878;4.584;2023-04-03T14:07:29;2.05;;;1.85;;
37781;SDS011;23621;50.878;4.584;2023-04-03T14:09:57;2.83;;;1.73;;
37781;SDS011;23621;50.878;4.584;2023-04-03T14:12:30;2.95;;;2.15;;
37781;SDS011;23621;50.878;4.584;2023-04-03T14:15:01;2.38;;;1.90;;
37781;SDS011;23621;50.878;4.584;2023-04-03T14:17:38;2.75;;;2.25;;
37781;SDS011;23621;50.878;4.584;2023-04-03T14:20:05;3.13;;;1.83;;
37781;SDS011;23621;50.878;4.584;2023-04-03T14:22:33;2.83;;;1.70;;
37781;SDS011;23621;50.878;4.584;2023-04-03T14:25:02;1.83;;;1.67;;
37781;SDS011;23621;50.878;4.584;2023-04-03T14:27:39;3.17;;;1.85;;
37781;SDS011;23621;50.878;4.584;2023-04-03T14:30:12;3.13;;;1.92;;
37781;SDS011;23621;50.878;4.584;2023-04-03T14:32:48;2.25;;;1.98;;
37781;SDS011;23621;50.878;4.584;2023-04-03T14:35:16;1.88;;;1.70;;
37781;SDS011;23621;50.878;4.584;2023-04-03T14:37:45;2.88;;;1.90;;
37781;SDS011;23621;50.878;4.584;2023-04-03T14:40:15;2.47;;;1.75;;
37781;SDS011;23621;50.878;4.584;2023-04-03T14:42:45;1.77;;;1.65;;
37781;SDS011;23621;50.878;4.584;2023-04-03T14:45:14;1.90;;;1.67;;
37781;SDS011;23621;50.878;4.584;2023-04-03T14:47:51;4.65;;;2.08;;
37781;SDS011;23621;50.878;4.584;2023-04-03T14:50:24;1.98;;;1.63;;
37781;SDS011;23621;50.878;4.584;2023-04-03T14:52:53;2.60;;;1.83;;
37781;SDS011;23621;50.878;4.584;2023-04-03T14:55:23;2.53;;;1.85;;
37781;SDS011;23621;50.878;4.584;2023-04-03T14:57:52;3.22;;;1.90;;
37781;SDS011;23621;50.878;4.584;2023-04-03T15:00:20;2.33;;;2.13;;
37781;SDS011;23621;50.878;4.584;2023-04-03T15:02:49;1.80;;;1.70;;
37781;SDS011;23621;50.878;4.584;2023-04-03T15:05:17;2.10;;;1.90;;
37781;SDS011;23621;50.878;4.584;2023-04-03T15:07:55;2.30;;;1.80;;
37781;SDS011;23621;50.878;4.584;2023-04-03T15:10:24;3.28;;;1.80;;
37781;SDS011;23621;50.878;4.584;2023-04-03T15:12:56;2.15;;;1.83;;
37781;SDS011;23621;50.878;4.584;2023-04-03T15:15:24;2.60;;;2.42;;
37781;SDS011;23621;50.878;4.584;2023-04-03T15:17:54;1.60;;;1.50;;
37781;SDS011;23621;50.878;4.584;2023-04-03T15:20:28;2.35;;;1.90;;
37781;SDS011;23621;50.878;4.584;2023-04-03T15:22:57;2.63;;;1.95;;
37781;SDS011;23621;50.878;4.584;2023-04-03T15:25:26;2.65;;;1.88;;
37781;SDS011;23621;50.878;4.584;2023-04-03T15:27:55;2.30;;;2.10;;
37781;SDS011;23621;50.878;4.584;2023-04-03T15:30:22;3.92;;;2.30;;
37781;SDS011;23621;50.878;4.584;2023-04-03T15:32:50;2.97;;;2.17;;
37781;SDS011;23621;50.878;4.584;2023-04-03T15:35:17;2.95;;;2.13;;
37781;SDS011;23621;50.878;4.584;2023-04-03T15:37:44;2.47;;;2.10;;
37781;SDS011;23621;50.878;4.584;2023-04-03T15:40:11;3.75;;;2.25;;
37781;SDS011;23621;50.878;4.584;2023-04-03T15:42:39;5.00;;;2.80;;
37781;SDS011;23621;50.878;4.584;2023-04-03T15:45:06;3.63;;;2.20;;
37781;SDS011;23621;50.878;4.584;2023-04-03T15:47:34;4.68;;;2.30;;
37781;SDS011;23621;50.878;4.584;2023-04-03T15:50:01;4.78;;;2.25;;
37781;SDS011;23621;50.878;4.584;2023-04-03T15:52:28;4.20;;;2.45;;
37781;SDS011;23621;50.878;4.584;2023-04-03T15:54:55;3.25;;;2.17;;
37781;SDS011;23621;50.878;4.584;2023-04-03T15:57:21;2.50;;;2.30;;
37781;SDS011;23621;50.878;4.584;2023-04-03T15:59:52;3.35;;;2.25;;
37781;SDS011;23621;50.878;4.584;2023-04-03T16:02:19;4.03;;;2.35;;
37781;SDS011;23621;50.878;4.584;2023-04-03T16:04:47;3.65;;;2.40;;
37781;SDS011;23621;50.878;4.584;2023-04-03T16:07:14;2.45;;;2.17;;
37781;SDS011;23621;50.878;4.584;2023-04-03T16:09:41;2.83;;;2.45;;
37781;SDS011;23621;50.878;4.584;2023-04-03T16:12:08;2.88;;;2.50;;
37781;SDS011;23621;50.878;4.584;2023-04-03T16:14:35;3.65;;;2.80;;
37781;SDS011;23621;50.878;4.584;2023-04-03T16:17:03;3.35;;;2.38;;
37781;SDS011;23621;50.878;4.584;2023-04-03T16:19:36;7.88;;;3.50;;
37781;SDS011;23621;50.878;4.584;2023-04-03T16:22:03;2.63;;;2.42;;
37781;SDS011;23621;50.878;4.584;2023-04-03T16:24:30;3.20;;;2.10;;
37781;SDS011;23621;50.878;4.584;2023-04-03T16:26:58;2.80;;;2.40;;
37781;SDS011;23621;50.878;4.584;2023-04-03T16:29:25;2.55;;;2.28;;
37781;SDS011;23621;50.878;4.584;2023-04-03T16:31:52;4.72;;;2.42;;
37781;SDS011;23621;50.878;4.584;2023-04-03T16:34:19;3.60;;;2.70;;
37781;SDS011;23621;50.878;4.584;2023-04-03T16:36:46;3.67;;;2.13;;
37781;SDS011;23621;50.878;4.584;2023-04-03T16:39:13;5.65;;;2.67;;